Time;durP1;ratioP1;P1;durP2;ratioP2;P2;SDS_P1;SDS_P2;PMS_P1;PMS_P2;Temp;Humidity;BMP_temperature;BMP_pressure;BME280_temperature;BME280_humidity;BME280_pressure;Samples;Min_cycle;Max_cycle;Signal;HPM_P1;HPM_P2
2022/07/08 00:00:15;;;;;;;6.20;2.90;;;;;;;;;;108915;1263;22540;-41
2022/07/08 00:03:07;;;;;;;6.20;2.40;;;;;;;;;;108898;1263;24131;-41
2022/07/08 00:05:39;;;;;;;7.60;2.50;;;;;;;;;;108929;1257;22505;-41
2022/07/08 00:08:11;;;;;;;6.90;2.50;;;;;;;;;;108894;1256;25909;-40
2022/07/08 00:10:43;;;;;;;4.80;2.30;;;;;;;;;;108911;1263;22740;-41
2022/07/08 00:13:16;;;;;;;7.20;2.40;;;;;;;;;;108903;1263;22528;-41
2022/07/08 00:15:48;;;;;;;5.90;2.80;;;;;;;;;;108938;1263;22643;-40
2022/07/08 00:18:19;;;;;;;;;;;;;;;;;;108907;1263;22582;-40
2022/07/08 00:20:52;;;;;;;6.20;2.60;;;;;;;;;;108818;1263;22526;-41
2022/07/08 00:23:24;;;;;;;4.90;2.40;;;;;;;;;;108916;1263;22024;-41
2022/07/08 00:25:59;;;;;;;5.20;2.80;;;;;;;;;;108928;1256;22601;-40
2022/07/08 00:28:31;;;;;;;5.40;2.40;;;;;;;;;;108918;1263;22587;-41
2022/07/08 00:31:03;;;;;;;5.40;2.50;;;;;;;;;;108910;1263;22525;-41
2022/07/08 00:33:35;;;;;;;4.90;2.40;;;;;;;;;;108923;1256;22748;-40
2022/07/08 00:36:09;;;;;;;5.40;2.30;;;;;;;;;;108939;1263;22558;-41
2022/07/08 00:38:41;;;;;;;4.50;2.70;;;;;;;;;;108963;1257;22874;-41
2022/07/08 00:41:16;;;;;;;5.70;2.60;;;;;;;;;;108925;1263;22499;-40
2022/07/08 00:43:50;;;;;;;5.40;2.80;;;;;;;;;;108895;1263;24221;-41
2022/07/08 00:46:22;;;;;;;5.30;2.80;;;;;;;;;;108952;1256;25295;-41
2022/07/08 00:48:55;;;;;;;5.30;2.70;;;;;;;;;;108899;1263;24646;-41
2022/07/08 00:51:28;;;;;;;6.50;2.80;;;;;;;;;;108946;1263;22532;-41
2022/07/08 00:54:00;;;;;;;5.20;2.70;;;;;;;;;;108930;1263;22527;-41
2022/07/08 00:56:33;;;;;;;5.60;2.90;;;;;;;;;;108892;1263;25295;-41
2022/07/08 00:59:06;;;;;;;5.50;2.60;;;;;;;;;;108952;1263;22582;-41
2022/07/08 01:01:39;;;;;;;5.10;2.60;;;;;;;;;;108894;1263;22534;-41
2022/07/08 01:04:11;;;;;;;4.50;2.40;;;;;;;;;;108922;1263;22841;-41
2022/07/08 01:06:43;;;;;;;6.40;3.10;;;;;;;;;;108962;1263;22608;-41
2022/07/08 01:09:16;;;;;;;5.30;3.10;;;;;;;;;;108929;1263;22607;-40
2022/07/08 01:11:50;;;;;;;5.10;2.60;;;;;;;;;;108914;1263;22599;-40
2022/07/08 01:14:22;;;;;;;5.00;3.30;;;;;;;;;;108905;1263;22452;-40
2022/07/08 01:16:54;;;;;;;6.60;2.90;;;;;;;;;;108913;1263;22956;-41
2022/07/08 01:19:27;;;;;;;5.40;3.00;;;;;;;;;;108934;1263;24180;-40
2022/07/08 01:21:59;;;;;;;5.00;2.90;;;;;;;;;;108886;1263;22535;-42
2022/07/08 01:24:31;;;;;;;5.00;3.30;;;;;;;;;;108934;1263;22525;-41
2022/07/08 01:27:03;;;;;;;5.00;3.00;;;;;;;;;;108900;1263;22528;-40
2022/07/08 01:29:36;;;;;;;5.50;3.20;;;;;;;;;;108876;1263;24278;-41
2022/07/08 01:32:10;;;;;;;4.70;3.00;;;;;;;;;;108926;1256;22514;-41
2022/07/08 01:34:43;;;;;;;5.20;3.00;;;;;;;;;;108941;1263;22627;-41
2022/07/08 01:37:14;;;;;;;6.10;3.20;;;;;;;;;;108925;1263;22488;-40
2022/07/08 01:39:49;;;;;;;5.80;2.90;;;;;;;;;;108956;1263;22535;-40
2022/07/08 01:42:21;;;;;;;5.70;3.20;;;;;;;;;;108868;1263;22589;-41
2022/07/08 01:44:55;;;;;;;6.80;2.80;;;;;;;;;;108935;1263;22532;-41
2022/07/08 01:47:27;;;;;;;6.90;3.30;;;;;;;;;;108955;1263;22521;-41
2022/07/08 01:50:00;;;;;;;4.30;3.00;;;;;;;;;;108900;1257;22516;-40
2022/07/08 01:52:32;;;;;;;4.80;3.00;;;;;;;;;;108906;1263;22531;-40
2022/07/08 01:55:06;;;;;;;5.00;2.90;;;;;;;;;;108880;1263;22623;-40
2022/07/08 01:57:38;;;;;;;5.50;3.00;;;;;;;;;;108907;1263;22539;-41
2022/07/08 02:00:16;;;;;;;4.30;2.60;;;;;;;;;;108927;1263;22513;-40
2022/07/08 02:02:49;;;;;;;4.60;2.90;;;;;;;;;;108899;1263;23733;-40
2022/07/08 02:05:21;;;;;;;4.40;2.80;;;;;;;;;;108923;1263;22674;-41
2022/07/08 02:07:54;;;;;;;7.10;3.30;;;;;;;;;;108932;1263;22522;-40
2022/07/08 02:10:27;;;;;;;4.70;2.50;;;;;;;;;;108940;1263;22725;-43
2022/07/08 02:12:59;;;;;;;5.40;2.70;;;;;;;;;;108903;1263;24135;-41
2022/07/08 02:15:36;;;;;;;4.70;2.90;;;;;;;;;;108907;1263;22510;-40
2022/07/08 02:18:08;;;;;;;4.50;2.50;;;;;;;;;;108897;1263;24292;-40
2022/07/08 02:20:41;;;;;;;4.70;2.60;;;;;;;;;;108902;1263;24393;-40
2022/07/08 02:23:13;;;;;;;5.50;2.80;;;;;;;;;;108904;1263;24157;-40
2022/07/08 02:25:45;;;;;;;4.70;2.50;;;;;;;;;;108886;1263;22528;-41
2022/07/08 02:28:17;;;;;;;5.70;2.70;;;;;;;;;;108941;1263;25367;-40
2022/07/08 02:30:51;;;;;;;5.50;2.70;;;;;;;;;;108893;1263;23023;-41
2022/07/08 02:33:23;;;;;;;4.70;2.80;;;;;;;;;;108915;1263;22524;-41
2022/07/08 02:35:55;;;;;;;6.10;2.80;;;;;;;;;;108815;1263;22554;-41
2022/07/08 02:38:28;;;;;;;4.70;2.80;;;;;;;;;;108933;1263;22587;-40
2022/07/08 02:41:00;;;;;;;4.30;2.60;;;;;;;;;;108892;1263;22494;-42
2022/07/08 02:43:32;;;;;;;5.80;3.10;;;;;;;;;;108900;1263;22510;-41
2022/07/08 02:46:10;;;;;;;4.40;2.70;;;;;;;;;;108873;1263;22517;-41
2022/07/08 02:48:42;;;;;;;4.60;2.90;;;;;;;;;;108921;1263;22553;-40
2022/07/08 02:51:15;;;;;;;5.40;3.00;;;;;;;;;;108882;1263;23845;-41
2022/07/08 02:53:47;;;;;;;5.10;2.80;;;;;;;;;;108897;1257;22853;-41
2022/07/08 02:56:19;;;;;;;4.30;2.80;;;;;;;;;;108923;1263;24188;-42
2022/07/08 02:58:51;;;;;;;4.90;3.20;;;;;;;;;;108889;1263;24234;-41
2022/07/08 03:01:24;;;;;;;4.60;2.90;;;;;;;;;;108916;1263;24110;-40
2022/07/08 03:03:56;;;;;;;5.10;3.10;;;;;;;;;;108881;1263;24276;-41
2022/07/08 03:06:28;;;;;;;4.80;3.00;;;;;;;;;;108932;1263;24378;-41
2022/07/08 03:09:02;;;;;;;4.60;3.10;;;;;;;;;;108899;1263;22514;-41
2022/07/08 03:11:34;;;;;;;6.10;3.10;;;;;;;;;;108918;1263;22543;-41
2022/07/08 03:14:06;;;;;;;6.50;3.40;;;;;;;;;;108917;1263;25390;-41
2022/07/08 03:16:38;;;;;;;5.50;3.30;;;;;;;;;;108961;1263;22474;-40
2022/07/08 03:19:12;;;;;;;5.20;3.30;;;;;;;;;;108866;1263;25284;-40
2022/07/08 03:21:44;;;;;;;5.60;3.10;;;;;;;;;;108924;1263;22558;-41
2022/07/08 03:24:16;;;;;;;5.40;3.60;;;;;;;;;;108928;1263;22563;-40
2022/07/08 03:26:49;;;;;;;5.20;3.40;;;;;;;;;;108955;1263;22514;-40
2022/07/08 03:29:21;;;;;;;5.90;3.20;;;;;;;;;;108914;1263;22535;-40
2022/07/08 03:31:54;;;;;;;6.70;3.30;;;;;;;;;;108920;1256;22579;-41
2022/07/08 03:34:27;;;;;;;4.80;3.00;;;;;;;;;;108945;1257;22546;-41
2022/07/08 03:37:00;;;;;;;5.50;3.60;;;;;;;;;;108889;1263;22675;-40
2022/07/08 03:39:32;;;;;;;6.20;3.50;;;;;;;;;;108928;1258;22516;-40
2022/07/08 03:42:05;;;;;;;5.10;3.20;;;;;;;;;;108932;1263;22784;-40
2022/07/08 03:44:40;;;;;;;6.50;3.40;;;;;;;;;;108951;1263;25431;-41
2022/07/08 03:47:12;;;;;;;4.70;3.50;;;;;;;;;;108865;1263;24169;-40
2022/07/08 03:49:44;;;;;;;;;;;;;;;;;;108924;1263;22495;-41
2022/07/08 03:52:16;;;;;;;5.30;3.40;;;;;;;;;;108892;1256;22635;-40
2022/07/08 03:54:48;;;;;;;5.50;3.20;;;;;;;;;;108880;1263;25291;-41
2022/07/08 03:57:20;;;;;;;4.80;3.10;;;;;;;;;;108917;1263;22528;-41
2022/07/08 03:59:52;;;;;;;6.60;3.80;;;;;;;;;;108888;1263;22520;-40
2022/07/08 04:02:25;;;;;;;7.50;3.80;;;;;;;;;;108891;1263;22448;-41
2022/07/08 04:04:57;;;;;;;6.30;3.70;;;;;;;;;;108910;1263;22538;-40
2022/07/08 04:07:29;;;;;;;6.40;3.50;;;;;;;;;;108930;1263;22556;-40
2022/07/08 04:10:01;;;;;;;6.20;3.50;;;;;;;;;;108925;1263;22703;-40
2022/07/08 04:12:34;;;;;;;6.00;3.50;;;;;;;;;;108909;1263;22525;-40
2022/07/08 04:15:13;;;;;;;6.00;3.90;;;;;;;;;;108929;1263;22584;-40
2022/07/08 04:17:45;;;;;;;5.70;4.00;;;;;;;;;;108888;1263;22520;-40
2022/07/08 04:20:21;;;;;;;6.30;4.00;;;;;;;;;;108875;1263;22690;-40
2022/07/08 04:22:53;;;;;;;5.80;3.80;;;;;;;;;;108928;1263;22437;-40
2022/07/08 04:25:25;;;;;;;5.50;3.70;;;;;;;;;;108895;1263;22525;-41
2022/07/08 04:27:58;;;;;;;6.50;3.30;;;;;;;;;;108905;1257;22518;-41
2022/07/08 04:30:33;;;;;;;5.40;4.00;;;;;;;;;;108855;1263;22517;-40
2022/07/08 04:33:08;;;;;;;6.40;3.70;;;;;;;;;;108910;1263;22530;-41
2022/07/08 04:35:40;;;;;;;5.60;3.80;;;;;;;;;;108944;1263;24179;-40
2022/07/08 04:38:13;;;;;;;6.60;4.40;;;;;;;;;;108939;1263;22506;-40
2022/07/08 04:40:45;;;;;;;6.20;3.70;;;;;;;;;;108897;1263;24118;-40
2022/07/08 04:43:18;;;;;;;6.40;3.90;;;;;;;;;;108907;1263;22547;-40
2022/07/08 04:45:49;;;;;;;6.70;3.70;;;;;;;;;;108896;1263;25360;-40
2022/07/08 04:48:21;;;;;;;5.80;3.50;;;;;;;;;;108902;1263;22623;-40
2022/07/08 04:50:54;;;;;;;6.40;4.30;;;;;;;;;;108885;1263;24180;-40
2022/07/08 04:53:27;;;;;;;6.60;4.00;;;;;;;;;;108935;1263;22529;-40
2022/07/08 04:56:02;;;;;;;6.00;3.90;;;;;;;;;;108909;1263;22553;-41
2022/07/08 04:58:34;;;;;;;6.00;4.00;;;;;;;;;;108914;1263;22509;-41
2022/07/08 05:01:07;;;;;;;6.10;3.90;;;;;;;;;;108896;1263;22475;-40
2022/07/08 05:03:38;;;;;;;;;;;;;;;;;;108913;1263;22497;-40
2022/07/08 05:06:10;;;;;;;7.30;4.10;;;;;;;;;;108935;1263;22884;-40
2022/07/08 05:08:42;;;;;;;5.80;4.10;;;;;;;;;;108931;1263;21766;-41
2022/07/08 05:11:15;;;;;;;7.20;3.90;;;;;;;;;;108942;1256;22523;-40
2022/07/08 05:13:47;;;;;;;5.60;3.70;;;;;;;;;;108890;1263;22553;-40
2022/07/08 05:16:20;;;;;;;6.90;4.00;;;;;;;;;;108933;1263;22459;-40
2022/07/08 05:18:52;;;;;;;7.50;4.00;;;;;;;;;;108936;1256;24362;-41
2022/07/08 05:21:24;;;;;;;5.70;4.00;;;;;;;;;;108924;1263;22522;-40
2022/07/08 05:23:57;;;;;;;7.10;3.90;;;;;;;;;;108954;1263;22574;-41
2022/07/08 05:26:29;;;;;;;6.10;3.90;;;;;;;;;;108874;1263;22939;-40
2022/07/08 05:29:01;;;;;;;5.90;4.00;;;;;;;;;;108921;1263;22585;-40
2022/07/08 05:31:33;;;;;;;7.40;3.80;;;;;;;;;;108906;1263;22515;-40
2022/07/08 05:34:06;;;;;;;6.50;3.80;;;;;;;;;;108917;1263;22529;-40
2022/07/08 05:36:39;;;;;;;7.00;3.80;;;;;;;;;;108900;1263;22635;-42
2022/07/08 05:39:11;;;;;;;6.80;3.40;;;;;;;;;;108924;1263;22503;-41
2022/07/08 05:41:43;;;;;;;6.30;3.60;;;;;;;;;;108935;1261;22643;-42
2022/07/08 05:44:15;;;;;;;8.30;4.20;;;;;;;;;;108934;1261;22510;-42
2022/07/08 05:46:48;;;;;;;5.70;3.50;;;;;;;;;;108937;1258;22713;-41
2022/07/08 05:49:20;;;;;;;5.60;3.30;;;;;;;;;;108894;1263;22521;-41
2022/07/08 05:51:53;;;;;;;6.20;3.60;;;;;;;;;;108886;1263;22717;-42
2022/07/08 05:54:26;;;;;;;6.20;3.30;;;;;;;;;;108912;1261;22504;-41
2022/07/08 05:56:59;;;;;;;6.00;3.40;;;;;;;;;;108920;1263;22524;-40
2022/07/08 05:59:32;;;;;;;7.00;4.40;;;;;;;;;;108962;1263;22780;-41
2022/07/08 06:02:05;;;;;;;6.10;3.30;;;;;;;;;;108891;1263;22515;-41
2022/07/08 06:04:37;;;;;;;6.30;3.70;;;;;;;;;;108932;1257;22839;-41
2022/07/08 06:07:09;;;;;;;6.00;3.60;;;;;;;;;;108933;1263;24288;-41
2022/07/08 06:09:45;;;;;;;6.20;3.60;;;;;;;;;;108928;1263;25275;-41
2022/07/08 06:12:17;;;;;;;6.20;3.30;;;;;;;;;;108906;1263;25352;-40
2022/07/08 06:14:52;;;;;;;6.20;3.00;;;;;;;;;;108917;1263;22613;-40
2022/07/08 06:17:24;;;;;;;5.60;3.10;;;;;;;;;;108938;1263;22990;-40
2022/07/08 06:19:57;;;;;;;5.70;3.20;;;;;;;;;;108942;1263;25887;-41
2022/07/08 06:22:29;;;;;;;7.20;3.30;;;;;;;;;;108904;1263;22518;-40
2022/07/08 06:25:01;;;;;;;5.20;2.90;;;;;;;;;;108933;1263;22514;-41
2022/07/08 06:27:33;;;;;;;5.20;3.10;;;;;;;;;;108915;1263;22522;-40
2022/07/08 06:30:08;;;;;;;4.90;2.80;;;;;;;;;;108913;1263;22439;-40
2022/07/08 06:32:40;;;;;;;5.30;2.60;;;;;;;;;;108922;1263;22439;-40
2022/07/08 06:35:12;;;;;;;4.70;2.90;;;;;;;;;;108704;1263;296107;-40
2022/07/08 06:37:45;;;;;;;5.60;3.50;;;;;;;;;;108914;1263;22520;-41
2022/07/08 06:40:19;;;;;;;5.90;2.90;;;;;;;;;;108938;1263;24176;-40
2022/07/08 06:42:52;;;;;;;5.50;3.00;;;;;;;;;;108906;1263;24224;-40
2022/07/08 06:45:24;;;;;;;5.30;3.00;;;;;;;;;;108929;1263;24161;-40
2022/07/08 06:47:58;;;;;;;5.50;2.90;;;;;;;;;;108903;1263;22527;-40
2022/07/08 06:50:31;;;;;;;7.10;3.30;;;;;;;;;;108879;1263;25286;-41
2022/07/08 06:53:03;;;;;;;8.00;3.60;;;;;;;;;;108879;1263;22630;-40
2022/07/08 06:55:36;;;;;;;8.00;4.10;;;;;;;;;;108915;1263;24183;-40
2022/07/08 06:58:08;;;;;;;11.00;4.90;;;;;;;;;;108964;1263;22535;-40
2022/07/08 07:00:40;;;;;;;8.30;4.00;;;;;;;;;;108881;1263;25297;-41
2022/07/08 07:03:12;;;;;;;9.40;4.00;;;;;;;;;;108921;1263;22629;-41
2022/07/08 07:05:45;;;;;;;9.00;4.00;;;;;;;;;;108930;1263;22439;-41
2022/07/08 07:08:17;;;;;;;8.60;3.90;;;;;;;;;;108943;1263;22640;-42
2022/07/08 07:10:50;;;;;;;9.40;4.50;;;;;;;;;;108883;1263;24041;-41
2022/07/08 07:13:21;;;;;;;8.20;4.20;;;;;;;;;;108922;1263;22562;-41
2022/07/08 07:15:54;;;;;;;6.40;3.80;;;;;;;;;;108917;1257;22542;-40
2022/07/08 07:18:29;;;;;;;9.00;4.30;;;;;;;;;;108925;1263;22487;-41
2022/07/08 07:21:01;;;;;;;7.60;3.70;;;;;;;;;;108896;1263;22613;-40
2022/07/08 07:23:34;;;;;;;7.10;3.80;;;;;;;;;;108847;1263;22547;-40
2022/07/08 07:26:09;;;;;;;6.50;3.90;;;;;;;;;;108828;1261;22508;-40
2022/07/08 07:28:41;;;;;;;9.30;3.90;;;;;;;;;;108933;1263;25437;-41
2022/07/08 07:31:14;;;;;;;6.40;4.50;;;;;;;;;;108893;1263;22431;-42
2022/07/08 07:33:46;;;;;;;6.10;4.10;;;;;;;;;;108916;1263;22546;-40
2022/07/08 07:36:18;;;;;;;6.90;3.80;;;;;;;;;;108879;1263;22518;-40
2022/07/08 07:38:53;;;;;;;6.80;3.50;;;;;;;;;;108913;1256;22540;-38
2022/07/08 07:41:25;;;;;;;7.40;3.90;;;;;;;;;;108877;1263;22525;-39
2022/07/08 07:43:58;;;;;;;6.90;3.80;;;;;;;;;;108902;1263;22532;-41
2022/07/08 07:46:30;;;;;;;5.40;3.90;;;;;;;;;;108880;1263;22521;-40
2022/07/08 07:49:02;;;;;;;6.70;3.70;;;;;;;;;;108886;1263;24276;-38
2022/07/08 07:51:34;;;;;;;6.50;3.80;;;;;;;;;;108891;1257;22555;-38
2022/07/08 07:54:06;;;;;;;5.70;3.80;;;;;;;;;;108866;1263;24147;-38
2022/07/08 07:56:39;;;;;;;5.20;3.60;;;;;;;;;;108870;1257;22473;-39
2022/07/08 07:59:11;;;;;;;5.20;3.70;;;;;;;;;;108909;1261;22628;-39
2022/07/08 08:01:43;;;;;;;4.90;3.70;;;;;;;;;;108880;1257;25307;-39
2022/07/08 08:04:15;;;;;;;7.00;4.30;;;;;;;;;;108929;1263;22581;-38
2022/07/08 08:06:48;;;;;;;6.40;3.60;;;;;;;;;;108834;1263;22502;-38
2022/07/08 08:09:22;;;;;;;6.80;3.60;;;;;;;;;;108900;1263;22524;-41
2022/07/08 08:11:55;;;;;;;5.00;3.30;;;;;;;;;;108892;1263;22437;-38
2022/07/08 08:14:27;;;;;;;4.50;3.40;;;;;;;;;;108896;1263;22509;-38
2022/07/08 08:17:01;;;;;;;5.10;3.50;;;;;;;;;;108883;1263;25913;-38
2022/07/08 08:19:34;;;;;;;4.80;3.20;;;;;;;;;;108879;1263;23051;-38
2022/07/08 08:22:06;;;;;;;4.50;3.00;;;;;;;;;;108895;1256;22550;-37
2022/07/08 08:24:40;;;;;;;5.00;3.60;;;;;;;;;;108877;1263;22573;-38
2022/07/08 08:27:12;;;;;;;4.60;3.40;;;;;;;;;;108908;1258;25900;-38
2022/07/08 08:29:45;;;;;;;5.20;3.30;;;;;;;;;;108909;1263;24164;-40
2022/07/08 08:32:17;;;;;;;7.00;3.80;;;;;;;;;;108905;1263;24150;-39
2022/07/08 08:34:49;;;;;;;8.00;3.70;;;;;;;;;;108833;1263;22766;-42
2022/07/08 08:37:28;;;;;;;5.00;3.60;;;;;;;;;;108826;1264;22792;-40
2022/07/08 08:40:03;;;;;;;5.60;4.20;;;;;;;;;;108849;1264;22531;-40
2022/07/08 08:42:36;;;;;;;4.70;3.50;;;;;;;;;;108791;1264;25201;-38
2022/07/08 08:45:12;;;;;;;5.90;4.00;;;;;;;;;;108777;1265;24268;-40
2022/07/08 08:47:48;;;;;;;5.60;4.70;;;;;;;;;;108794;1264;22592;-40
2022/07/08 08:53:19;;;;;;;5.30;4.00;;;;;;;;;;108911;1263;24272;-40
2022/07/08 08:55:52;;;;;;;4.80;3.70;;;;;;;;;;108847;1263;24151;-36
2022/07/08 08:58:25;;;;;;;4.80;3.80;;;;;;;;;;108766;1264;22635;-36
2022/07/08 09:00:58;;;;;;;5.40;3.80;;;;;;;;;;108835;1264;22513;-38
2022/07/08 09:03:29;;;;;;;;;;;;;;;;;;108826;1256;25269;-36
2022/07/08 09:06:02;;;;;;;5.80;4.70;;;;;;;;;;108811;1264;22738;-41
2022/07/08 09:08:37;;;;;;;5.70;4.10;;;;;;;;;;108851;1264;22530;-41
2022/07/08 09:11:11;;;;;;;6.20;5.20;;;;;;;;;;108806;1264;22538;-37
2022/07/08 09:13:44;;;;;;;7.10;4.50;;;;;;;;;;108833;1264;22523;-38
2022/07/08 09:16:16;;;;;;;5.50;4.90;;;;;;;;;;108864;1264;22521;-38
2022/07/08 09:18:50;;;;;;;8.30;6.00;;;;;;;;;;108822;1264;22525;-41
2022/07/08 09:21:31;;;;;;;7.50;6.30;;;;;;;;;;108833;1258;22706;-41
2022/07/08 09:24:21;;;;;;;8.10;6.50;;;;;;;;;;108795;1264;22506;-42
2022/07/08 09:26:57;;;;;;;8.50;6.90;;;;;;;;;;108787;1264;25900;-40
2022/07/08 09:29:29;;;;;;;9.40;6.40;;;;;;;;;;108814;1266;22523;-41
2022/07/08 09:32:17;;;;;;;7.10;6.40;;;;;;;;;;108863;1263;22663;-40
2022/07/08 09:34:49;;;;;;;9.30;7.20;;;;;;;;;;108898;1263;22583;-36
2022/07/08 09:37:25;;;;;;;10.70;6.80;;;;;;;;;;108911;1263;22443;-38
2022/07/08 09:39:58;;;;;;;9.20;7.00;;;;;;;;;;108909;1263;22936;-36
2022/07/08 09:42:40;;;;;;;10.10;6.90;;;;;;;;;;108911;1263;21816;-37
2022/07/08 09:45:15;;;;;;;10.70;7.10;;;;;;;;;;108875;1264;25287;-37
2022/07/08 09:47:47;;;;;;;8.40;6.40;;;;;;;;;;108896;1263;25900;-37
2022/07/08 09:50:20;;;;;;;9.70;6.70;;;;;;;;;;108910;1263;22829;-43
2022/07/08 09:52:58;;;;;;;8.20;6.10;;;;;;;;;;108875;1263;22467;-37
2022/07/08 09:55:34;;;;;;;10.00;6.40;;;;;;;;;;108875;1263;25282;-35
2022/07/08 09:58:08;;;;;;;9.40;6.40;;;;;;;;;;108934;1263;22521;-39
2022/07/08 10:00:40;;;;;;;8.90;6.30;;;;;;;;;;108925;1263;22522;-36
2022/07/08 10:03:14;;;;;;;8.60;5.70;;;;;;;;;;108877;1263;22521;-34
2022/07/08 10:05:45;;;;;;;;;;;;;;;;;;108939;1263;22483;-37
2022/07/08 10:08:18;;;;;;;9.80;5.70;;;;;;;;;;108909;1263;24205;-34
2022/07/08 10:10:56;;;;;;;8.50;5.80;;;;;;;;;;108935;1263;22519;-36
2022/07/08 10:13:29;;;;;;;6.90;5.30;;;;;;;;;;109978;1247;23696;-34
2022/07/08 10:16:04;;;;;;;7.00;5.00;;;;;;;;;;108893;1257;22835;-37
2022/07/08 10:18:40;;;;;;;5.60;3.90;;;;;;;;;;108895;1262;22533;-36
2022/07/08 10:21:17;;;;;;;7.40;4.80;;;;;;;;;;108897;1263;24221;-37
2022/07/08 10:23:52;;;;;;;6.20;4.70;;;;;;;;;;108902;1263;24420;-36
2022/07/08 10:26:31;;;;;;;5.70;4.60;;;;;;;;;;108903;1263;22527;-37
2022/07/08 10:29:08;;;;;;;5.60;4.40;;;;;;;;;;108877;1257;23004;-38
2022/07/08 10:31:51;;;;;;;6.70;4.30;;;;;;;;;;108917;1263;22543;-37
2022/07/08 10:34:29;;;;;;;6.40;4.00;;;;;;;;;;108926;1256;22545;-37
2022/07/08 10:37:03;;;;;;;6.60;4.40;;;;;;;;;;108950;1262;22650;-38
2022/07/08 10:39:43;;;;;;;5.00;4.00;;;;;;;;;;108919;1256;22523;-38
2022/07/08 10:42:15;;;;;;;6.40;4.20;;;;;;;;;;108904;1263;22702;-38
2022/07/08 10:44:54;;;;;;;5.80;3.80;;;;;;;;;;108921;1262;22518;-40
2022/07/08 10:47:29;;;;;;;6.60;4.00;;;;;;;;;;108932;1263;22536;-38
2022/07/08 10:50:10;;;;;;;7.30;3.60;;;;;;;;;;108886;1264;22568;-39
2022/07/08 10:52:44;;;;;;;4.80;3.90;;;;;;;;;;108896;1264;24187;-40
2022/07/08 10:55:18;;;;;;;5.80;4.00;;;;;;;;;;108923;1258;22561;-40
2022/07/08 10:58:00;;;;;;;5.20;4.50;;;;;;;;;;108898;1256;22852;-40
2022/07/08 11:00:35;;;;;;;5.50;3.90;;;;;;;;;;108874;1264;22547;-40
2022/07/08 11:03:12;;;;;;;5.00;3.90;;;;;;;;;;108886;1264;22542;-40
2022/07/08 11:05:45;;;;;;;4.90;4.30;;;;;;;;;;108858;1264;22531;-38
2022/07/08 11:08:29;;;;;;;4.80;3.90;;;;;;;;;;108915;1258;25322;-38
2022/07/08 11:11:05;;;;;;;5.20;4.10;;;;;;;;;;108879;1257;22527;-38
2022/07/08 11:13:37;;;;;;;6.00;4.30;;;;;;;;;;108893;1263;24211;-37
2022/07/08 11:16:10;;;;;;;6.00;4.10;;;;;;;;;;108877;1263;22546;-37
2022/07/08 11:18:48;;;;;;;5.10;4.10;;;;;;;;;;108920;1264;22512;-34
2022/07/08 11:21:20;;;;;;;6.00;4.20;;;;;;;;;;108939;1264;22586;-36
2022/07/08 11:23:52;;;;;;;5.30;4.50;;;;;;;;;;108896;1264;22575;-37
2022/07/08 11:26:24;;;;;;;6.00;3.90;;;;;;;;;;108961;1264;22540;-37
2022/07/08 11:28:57;;;;;;;6.00;4.10;;;;;;;;;;108917;1263;24192;-35
2022/07/08 11:31:32;;;;;;;5.60;4.60;;;;;;;;;;108937;1263;22524;-38
2022/07/08 11:34:05;;;;;;;4.90;4.20;;;;;;;;;;108943;1257;22761;-37
2022/07/08 11:36:37;;;;;;;5.20;4.50;;;;;;;;;;108912;1263;25293;-38
2022/07/08 11:39:09;;;;;;;5.90;4.50;;;;;;;;;;108938;1262;22931;-36
2022/07/08 11:41:44;;;;;;;5.60;4.30;;;;;;;;;;108952;1262;22514;-37
2022/07/08 11:44:18;;;;;;;5.80;4.60;;;;;;;;;;108935;1255;22515;-38
2022/07/08 11:46:53;;;;;;;5.10;4.10;;;;;;;;;;108986;1263;22521;-38
2022/07/08 11:49:25;;;;;;;5.80;4.50;;;;;;;;;;108908;1256;22732;-38
2022/07/08 11:52:00;;;;;;;5.90;4.20;;;;;;;;;;108934;1264;23772;-38
2022/07/08 11:54:32;;;;;;;5.20;4.40;;;;;;;;;;108922;1264;22534;-36
2022/07/08 11:57:07;;;;;;;5.10;4.40;;;;;;;;;;108900;1264;25381;-37
2022/07/08 11:59:39;;;;;;;6.10;4.90;;;;;;;;;;108879;1256;22523;-37
2022/07/08 12:02:11;;;;;;;5.10;4.60;;;;;;;;;;108937;1262;22521;-40
2022/07/08 12:04:47;;;;;;;7.40;4.00;;;;;;;;;;108914;1262;22574;-38
2022/07/08 12:07:29;;;;;;;5.20;4.20;;;;;;;;;;108917;1263;24320;-38
2022/07/08 12:10:04;;;;;;;5.70;3.90;;;;;;;;;;108944;1263;22471;-37
2022/07/08 12:12:37;;;;;;;5.20;3.40;;;;;;;;;;108927;1263;22890;-37
2022/07/08 12:15:16;;;;;;;;;;;;;;;;;;108926;1262;22487;-40
2022/07/08 12:18:01;;;;;;;5.10;3.60;;;;;;;;;;108959;1262;22507;-39
2022/07/08 12:20:38;;;;;;;4.80;3.40;;;;;;;;;;108922;1262;22545;-39
2022/07/08 12:23:12;;;;;;;5.00;3.40;;;;;;;;;;108876;1257;22804;-39
2022/07/08 12:25:53;;;;;;;5.20;3.40;;;;;;;;;;108937;1257;23132;-40
2022/07/08 12:28:27;;;;;;;4.90;3.20;;;;;;;;;;108919;1257;22523;-39
2022/07/08 12:30:59;;;;;;;4.60;2.80;;;;;;;;;;108931;1257;22920;-39
2022/07/08 12:33:32;;;;;;;5.10;3.20;;;;;;;;;;108934;1262;24134;-39
2022/07/08 12:36:05;;;;;;;;;;;;;;;;;;108957;1263;24211;-39
2022/07/08 12:38:37;;;;;;;6.00;3.60;;;;;;;;;;108913;1262;22510;-39
2022/07/08 12:41:22;;;;;;;5.40;3.00;;;;;;;;;;108897;1263;24137;-40
2022/07/08 12:43:54;;;;;;;4.40;2.90;;;;;;;;;;108789;1263;24278;-38
2022/07/08 12:46:28;;;;;;;4.30;3.10;;;;;;;;;;108778;1263;22536;-37
2022/07/08 12:49:00;;;;;;;4.10;3.00;;;;;;;;;;108764;1263;25213;-37
2022/07/08 12:51:32;;;;;;;4.40;3.30;;;;;;;;;;108721;1263;22526;-38
2022/07/08 12:54:05;;;;;;;4.70;3.50;;;;;;;;;;108751;1262;22543;-38
2022/07/08 12:56:37;;;;;;;4.50;2.90;;;;;;;;;;108820;1262;22535;-37
2022/07/08 12:59:09;;;;;;;3.70;2.60;;;;;;;;;;108912;1257;22793;-37
2022/07/08 13:01:42;;;;;;;4.30;2.90;;;;;;;;;;108922;1262;22699;-37
2022/07/08 13:04:15;;;;;;;4.10;2.70;;;;;;;;;;108930;1262;22506;-37
2022/07/08 13:06:46;;;;;;;;;;;;;;;;;;108890;1262;22499;-38
2022/07/08 13:09:27;;;;;;;5.00;3.10;;;;;;;;;;108945;1262;22533;-36
2022/07/08 13:11:59;;;;;;;4.60;3.00;;;;;;;;;;108856;1263;22514;-34
2022/07/08 13:14:32;;;;;;;5.20;3.30;;;;;;;;;;108891;1263;25401;-35
2022/07/08 13:17:06;;;;;;;4.70;3.30;;;;;;;;;;108943;1262;22518;-36
2022/07/08 13:19:38;;;;;;;4.70;3.50;;;;;;;;;;108948;1262;22556;-36
2022/07/08 13:22:11;;;;;;;6.10;3.60;;;;;;;;;;108922;1262;21705;-36
2022/07/08 13:24:43;;;;;;;4.30;3.20;;;;;;;;;;108858;1255;22905;-36
2022/07/08 13:27:16;;;;;;;5.50;3.20;;;;;;;;;;108909;1263;22521;-37
2022/07/08 13:29:48;;;;;;;5.30;3.00;;;;;;;;;;108909;1263;22828;-36
2022/07/08 13:32:21;;;;;;;6.10;3.40;;;;;;;;;;108905;1257;22533;-36
2022/07/08 13:34:53;;;;;;;6.50;3.70;;;;;;;;;;108907;1262;22490;-37
2022/07/08 13:37:25;;;;;;;5.30;3.10;;;;;;;;;;108931;1257;22633;-37
2022/07/08 13:39:58;;;;;;;4.70;3.10;;;;;;;;;;108902;1257;25263;-38
2022/07/08 13:42:31;;;;;;;6.40;3.60;;;;;;;;;;108908;1263;22698;-37
2022/07/08 13:45:03;;;;;;;;;;;;;;;;;;108918;1263;22492;-34
2022/07/08 13:47:35;;;;;;;4.80;3.30;;;;;;;;;;108913;1262;22514;-36
2022/07/08 13:50:11;;;;;;;5.00;3.60;;;;;;;;;;108922;1262;22518;-36
2022/07/08 13:52:44;;;;;;;5.50;3.70;;;;;;;;;;108966;1263;22526;-35
2022/07/08 13:55:16;;;;;;;6.10;3.20;;;;;;;;;;108940;1263;22490;-36
2022/07/08 13:57:48;;;;;;;5.00;3.50;;;;;;;;;;108907;1262;22526;-35
2022/07/08 14:00:21;;;;;;;4.90;3.10;;;;;;;;;;108938;1263;22619;-36
2022/07/08 14:02:56;;;;;;;5.80;3.20;;;;;;;;;;108917;1262;22521;-37
2022/07/08 14:05:28;;;;;;;5.30;2.60;;;;;;;;;;108845;1263;23007;-39
2022/07/08 14:08:01;;;;;;;4.10;2.40;;;;;;;;;;108756;1263;22503;-38
2022/07/08 14:10:33;;;;;;;4.30;3.10;;;;;;;;;;108737;1263;24269;-38
2022/07/08 14:13:06;;;;;;;5.20;3.00;;;;;;;;;;108698;1263;25223;-38
2022/07/08 14:15:38;;;;;;;4.60;2.70;;;;;;;;;;108738;1263;22527;-38
2022/07/08 14:18:10;;;;;;;4.50;2.80;;;;;;;;;;108768;1256;22700;-38
2022/07/08 14:20:42;;;;;;;4.40;2.80;;;;;;;;;;108692;1256;22534;-39
2022/07/08 14:23:15;;;;;;;4.90;2.80;;;;;;;;;;108809;1263;22549;-38
2022/07/08 14:25:47;;;;;;;5.10;2.90;;;;;;;;;;108919;1263;24231;-38
2022/07/08 14:28:20;;;;;;;4.70;2.90;;;;;;;;;;108896;1262;22529;-38
2022/07/08 14:30:52;;;;;;;4.80;3.10;;;;;;;;;;108947;1263;25329;-39
2022/07/08 14:33:25;;;;;;;7.30;5.20;;;;;;;;;;108616;1262;361137;-38
2022/07/08 14:35:59;;;;;;;31.70;28.40;;;;;;;;;;108797;1262;22530;-38
2022/07/08 14:38:32;;;;;;;22.50;20.10;;;;;;;;;;108955;1262;22534;-39
2022/07/08 14:41:06;;;;;;;19.00;17.00;;;;;;;;;;108968;1262;22517;-38
2022/07/08 14:43:38;;;;;;;17.10;15.20;;;;;;;;;;108929;1263;22507;-38
2022/07/08 14:46:11;;;;;;;17.10;15.10;;;;;;;;;;108924;1263;22437;-38
2022/07/08 14:48:43;;;;;;;16.90;14.30;;;;;;;;;;108889;1263;22560;-38
2022/07/08 14:51:16;;;;;;;18.80;14.80;;;;;;;;;;108906;1263;24198;-37
2022/07/08 14:53:48;;;;;;;16.20;14.00;;;;;;;;;;108945;1262;22570;-38
2022/07/08 14:56:21;;;;;;;16.00;13.80;;;;;;;;;;108929;1263;22568;-38
2022/07/08 14:58:53;;;;;;;16.70;14.70;;;;;;;;;;108948;1263;22519;-39
2022/07/08 15:01:26;;;;;;;17.70;15.70;;;;;;;;;;108917;1263;22507;-39
2022/07/08 15:03:58;;;;;;;16.50;14.70;;;;;;;;;;108940;1262;22534;-37
2022/07/08 15:06:32;;;;;;;18.80;14.90;;;;;;;;;;108921;1262;23043;-37
2022/07/08 15:09:04;;;;;;;16.20;14.60;;;;;;;;;;108956;1263;22543;-37